Time;durP1;ratioP1;P1;durP2;ratioP2;P2;SDS_P1;SDS_P2;PMS_P1;PMS_P2;Temp;Humidity;BMP_temperature;BMP_pressure;BME280_temperature;BME280_humidity;BME280_pressure;Samples;Min_cycle;Max_cycle;Signal;HPM_P1;HPM_P2
2023/05/08 00:02:24;;;;;;;7.85;4.53;;;;;;;;;;5052659;28;20028;-75
2023/05/08 00:04:50;;;;;;;11.07;4.40;;;;;;;;;;5051749;28;20048;-75
2023/05/08 00:07:15;;;;;;;13.65;4.65;;;;;;;;;;5052165;28;20037;-76
2023/05/08 00:09:41;;;;;;;7.20;3.97;;;;;;;;;;5051894;28;20037;-75
2023/05/08 00:12:06;;;;;;;8.13;3.97;;;;;;;;;;5050906;28;20033;-75
2023/05/08 00:14:31;;;;;;;8.70;4.13;;;;;;;;;;5052011;28;20033;-75
2023/05/08 00:16:57;;;;;;;19.15;4.65;;;;;;;;;;5051899;28;20040;-75
2023/05/08 00:19:22;;;;;;;13.63;4.63;;;;;;;;;;5053752;28;20028;-75
2023/05/08 00:21:47;;;;;;;13.88;4.72;;;;;;;;;;5056541;28;20147;-75
2023/05/08 00:24:13;;;;;;;11.65;3.72;;;;;;;;;;5055284;28;20040;-76
2023/05/08 00:26:38;;;;;;;9.65;3.85;;;;;;;;;;5055863;28;20045;-75
2023/05/08 00:29:03;;;;;;;10.55;3.75;;;;;;;;;;5055877;28;20040;-76
2023/05/08 00:31:29;;;;;;;14.20;4.13;;;;;;;;;;5054401;28;20454;-75
2023/05/08 00:33:54;;;;;;;12.85;3.97;;;;;;;;;;5055787;28;20041;-75
2023/05/08 00:36:20;;;;;;;7.75;3.42;;;;;;;;;;5050832;28;20041;-75
2023/05/08 00:38:45;;;;;;;7.75;3.60;;;;;;;;;;5055527;28;20361;-75
2023/05/08 00:41:10;;;;;;;8.63;3.33;;;;;;;;;;5055747;28;20044;-75
2023/05/08 00:43:36;;;;;;;8.70;3.80;;;;;;;;;;5054546;28;20090;-75
2023/05/08 00:46:02;;;;;;;9.77;3.38;;;;;;;;;;5055501;28;20040;-75
2023/05/08 00:48:29;;;;;;;9.38;3.90;;;;;;;;;;5054248;28;20086;-76
2023/05/08 00:50:55;;;;;;;11.57;4.00;;;;;;;;;;5054406;28;20036;-76
2023/05/08 00:53:21;;;;;;;9.30;3.75;;;;;;;;;;5054318;28;20085;-76
2023/05/08 00:55:48;;;;;;;10.95;3.55;;;;;;;;;;5053866;28;20380;-75
2023/05/08 00:58:14;;;;;;;10.32;3.72;;;;;;;;;;5053588;28;20045;-77
2023/05/08 01:00:43;;;;;;;7.03;3.38;;;;;;;;;;5054112;28;20059;-76
2023/05/08 01:03:09;;;;;;;11.75;4.13;;;;;;;;;;5050360;28;20059;-75
2023/05/08 01:05:35;;;;;;;7.28;3.85;;;;;;;;;;5054874;28;20037;-76
2023/05/08 01:08:01;;;;;;;9.60;3.97;;;;;;;;;;5049847;28;20047;-76
2023/05/08 01:10:34;;;;;;;10.30;4.22;;;;;;;;;;5042586;28;20492;-75
2023/05/08 01:13:19;;;;;;;8.95;3.63;;;;;;;;;;5053403;28;20552;-76
2023/05/08 01:15:57;;;;;;;15.20;3.90;;;;;;;;;;5053008;28;20039;-76
2023/05/08 01:18:35;;;;;;;18.30;3.78;;;;;;;;;;5054022;28;20052;-75
2023/05/08 01:21:22;;;;;;;12.70;3.80;;;;;;;;;;5053903;28;20037;-76
2023/05/08 01:24:06;;;;;;;5.97;2.83;;;;;;;;;;5049160;28;20041;-75
2023/05/08 01:27:04;;;;;;;9.18;3.78;;;;;;;;;;5054785;28;20112;-75
2023/05/08 01:29:42;;;;;;;10.68;3.72;;;;;;;;;;5052569;28;20059;-75
2023/05/08 01:32:14;;;;;;;9.23;2.92;;;;;;;;;;5050867;28;20048;-75
2023/05/08 01:35:06;;;;;;;17.70;4.47;;;;;;;;;;5074786;28;20045;-75
2023/05/08 01:37:38;;;;;;;5.95;3.10;;;;;;;;;;5049429;28;20041;-76
2023/05/08 01:40:11;;;;;;;6.97;3.50;;;;;;;;;;5051901;28;20048;-75
2023/05/08 01:42:50;;;;;;;13.32;3.08;;;;;;;;;;5053877;28;20036;-75
2023/05/08 01:45:30;;;;;;;6.78;2.95;;;;;;;;;;5054175;28;20033;-75
2023/05/08 01:48:09;;;;;;;11.27;3.30;;;;;;;;;;5053668;28;20043;-75
2023/05/08 01:50:41;;;;;;;8.15;3.72;;;;;;;;;;5051469;28;20048;-76
2023/05/08 01:53:09;;;;;;;11.18;3.70;;;;;;;;;;5051864;28;20461;-75
2023/05/08 01:55:36;;;;;;;12.48;4.00;;;;;;;;;;5052560;28;20087;-75
2023/05/08 01:58:07;;;;;;;14.15;3.47;;;;;;;;;;5047150;28;20057;-76
2023/05/08 02:00:33;;;;;;;7.20;2.92;;;;;;;;;;5044798;28;20061;-75
2023/05/08 02:02:59;;;;;;;8.15;2.97;;;;;;;;;;5054229;28;20091;-75
2023/05/08 02:05:25;;;;;;;5.57;2.47;;;;;;;;;;5054231;28;20041;-75
2023/05/08 02:07:51;;;;;;;5.57;3.00;;;;;;;;;;5053151;28;20106;-75
2023/05/08 02:10:17;;;;;;;10.07;3.22;;;;;;;;;;5052425;28;20041;-76
2023/05/08 02:12:43;;;;;;;16.38;3.38;;;;;;;;;;5053229;28;20098;-76
2023/05/08 02:15:12;;;;;;;10.82;3.08;;;;;;;;;;5035850;28;20400;-76
2023/05/08 02:17:38;;;;;;;6.30;3.13;;;;;;;;;;5052782;28;20083;-77
2023/05/08 02:20:05;;;;;;;9.90;3.30;;;;;;;;;;5049865;28;20040;-75
2023/05/08 02:22:31;;;;;;;7.40;3.10;;;;;;;;;;5052346;28;20036;-75
2023/05/08 02:24:57;;;;;;;4.93;2.58;;;;;;;;;;5051103;28;20064;-75
2023/05/08 02:27:25;;;;;;;15.90;2.67;;;;;;;;;;5052892;28;20476;-75
2023/05/08 02:29:50;;;;;;;7.05;3.08;;;;;;;;;;5048236;28;20029;-75
2023/05/08 02:32:17;;;;;;;10.77;2.92;;;;;;;;;;5052734;28;20500;-75
2023/05/08 02:34:43;;;;;;;9.52;2.65;;;;;;;;;;5052032;28;20045;-75
2023/05/08 02:37:09;;;;;;;11.32;3.15;;;;;;;;;;5052673;28;20036;-76
2023/05/08 02:39:35;;;;;;;6.07;2.58;;;;;;;;;;5052096;28;20037;-76
2023/05/08 02:42:01;;;;;;;12.75;4.13;;;;;;;;;;5051765;28;20028;-76
2023/05/08 02:44:26;;;;;;;9.77;2.75;;;;;;;;;;5051906;28;20051;-75
2023/05/08 02:47:05;;;;;;;6.07;3.22;;;;;;;;;;5053928;28;20033;-75
2023/05/08 02:49:51;;;;;;;9.68;3.00;;;;;;;;;;5040368;28;20033;-75
2023/05/08 02:52:28;;;;;;;8.40;2.85;;;;;;;;;;5049590;28;20520;-75
2023/05/08 02:54:53;;;;;;;10.70;3.28;;;;;;;;;;5051707;28;20127;-75
2023/05/08 02:57:41;;;;;;;6.25;3.30;;;;;;;;;;5052175;28;20081;-75
2023/05/08 03:00:19;;;;;;;11.35;3.80;;;;;;;;;;5049230;28;20044;-77
2023/05/08 03:02:58;;;;;;;14.88;4.07;;;;;;;;;;5046432;28;20041;-76
2023/05/08 03:05:31;;;;;;;11.60;4.50;;;;;;;;;;5048466;28;20029;-75
2023/05/08 03:08:04;;;;;;;6.57;3.47;;;;;;;;;;5052036;28;20041;-76
2023/05/08 03:10:32;;;;;;;8.38;3.67;;;;;;;;;;5051552;28;20056;-75
2023/05/08 03:12:59;;;;;;;5.43;3.00;;;;;;;;;;5035471;28;20059;-75
2023/05/08 03:15:27;;;;;;;5.05;2.92;;;;;;;;;;5051643;28;20064;-76
2023/05/08 03:17:55;;;;;;;7.50;3.15;;;;;;;;;;5051621;28;20036;-75
2023/05/08 03:20:23;;;;;;;9.65;2.67;;;;;;;;;;5031379;28;20034;-75
2023/05/08 03:22:49;;;;;;;7.53;2.80;;;;;;;;;;5047725;28;20037;-76
2023/05/08 03:25:16;;;;;;;10.27;2.72;;;;;;;;;;5051297;28;20043;-76
2023/05/08 03:27:43;;;;;;;11.63;3.45;;;;;;;;;;5051791;28;20067;-75
2023/05/08 03:30:09;;;;;;;6.30;3.35;;;;;;;;;;5051346;28;20033;-75
2023/05/08 03:32:35;;;;;;;8.02;3.33;;;;;;;;;;5051685;28;20124;-75
2023/05/08 03:35:01;;;;;;;14.18;3.33;;;;;;;;;;5052286;28;20484;-75
2023/05/08 03:37:27;;;;;;;9.20;3.25;;;;;;;;;;5051216;28;20055;-75
2023/05/08 03:39:53;;;;;;;9.00;3.25;;;;;;;;;;5050931;28;20419;-75
2023/05/08 03:42:21;;;;;;;9.95;3.30;;;;;;;;;;5051114;28;20421;-75
2023/05/08 03:44:51;;;;;;;14.35;3.20;;;;;;;;;;5052181;28;20068;-75
2023/05/08 03:47:17;;;;;;;6.25;3.10;;;;;;;;;;5051763;28;20037;-75
2023/05/08 03:49:44;;;;;;;11.60;3.75;;;;;;;;;;5049657;28;20124;-75
2023/05/08 03:52:11;;;;;;;5.63;3.15;;;;;;;;;;5050796;28;20045;-76
2023/05/08 03:54:36;;;;;;;21.40;3.55;;;;;;;;;;5050441;28;20067;-77
2023/05/08 03:57:01;;;;;;;12.32;3.17;;;;;;;;;;5051509;28;20076;-76
2023/05/08 03:59:51;;;;;;;5.95;2.95;;;;;;;;;;5051751;28;20029;-76
2023/05/08 04:02:28;;;;;;;13.45;3.03;;;;;;;;;;5051315;28;20071;-75
2023/05/08 04:05:22;;;;;;;18.98;4.45;;;;;;;;;;5034952;28;20042;-75
2023/05/08 04:08:08;;;;;;;12.63;3.95;;;;;;;;;;5050143;28;20082;-76
2023/05/08 04:10:42;;;;;;;10.65;3.60;;;;;;;;;;5050401;28;20033;-75
2023/05/08 04:13:36;;;;;;;11.95;3.72;;;;;;;;;;5051515;28;20045;-75
2023/05/08 04:16:28;;;;;;;10.18;3.28;;;;;;;;;;5045348;28;20037;-75
2023/05/08 04:18:58;;;;;;;10.13;4.05;;;;;;;;;;5049776;28;20408;-75
2023/05/08 04:21:24;;;;;;;12.45;4.30;;;;;;;;;;5049492;28;20033;-76
2023/05/08 04:23:50;;;;;;;15.43;4.47;;;;;;;;;;5050489;28;20033;-76
2023/05/08 04:26:17;;;;;;;10.80;4.15;;;;;;;;;;5050419;28;20037;-75
2023/05/08 04:28:42;;;;;;;9.57;4.25;;;;;;;;;;5051181;28;20094;-76
2023/05/08 04:31:08;;;;;;;13.32;4.90;;;;;;;;;;5048159;28;20036;-75
2023/05/08 04:33:34;;;;;;;18.70;4.35;;;;;;;;;;5080689;28;20037;-76
2023/05/08 04:36:03;;;;;;;17.27;5.60;;;;;;;;;;5046839;28;20067;-75
2023/05/08 04:38:29;;;;;;;24.10;5.50;;;;;;;;;;5049307;28;20487;-75
2023/05/08 04:40:54;;;;;;;15.32;4.93;;;;;;;;;;5050525;28;20040;-76
2023/05/08 04:43:20;;;;;;;15.05;4.55;;;;;;;;;;5052152;28;20601;-75
2023/05/08 04:45:45;;;;;;;21.00;5.70;;;;;;;;;;5048419;28;20079;-75
2023/05/08 04:48:10;;;;;;;25.35;5.10;;;;;;;;;;5051891;28;20096;-76
2023/05/08 04:50:36;;;;;;;8.82;4.13;;;;;;;;;;5046655;28;20115;-75
2023/05/08 04:53:01;;;;;;;17.52;4.65;;;;;;;;;;5051968;28;20040;-75
2023/05/08 04:55:27;;;;;;;15.15;3.90;;;;;;;;;;5050615;28;20489;-75
2023/05/08 04:57:52;;;;;;;12.00;4.47;;;;;;;;;;5048135;28;20049;-75
2023/05/08 05:00:18;;;;;;;11.32;4.03;;;;;;;;;;5050816;28;20028;-75
2023/05/08 05:02:43;;;;;;;10.68;3.85;;;;;;;;;;5051833;28;20037;-76
2023/05/08 05:05:09;;;;;;;16.20;5.30;;;;;;;;;;5052986;28;20045;-75
2023/05/08 05:07:35;;;;;;;8.07;3.50;;;;;;;;;;5055565;28;20392;-76
2023/05/08 05:10:00;;;;;;;15.35;4.00;;;;;;;;;;5055169;28;20041;-75
2023/05/08 05:12:26;;;;;;;9.27;3.78;;;;;;;;;;5055457;28;20408;-75
2023/05/08 05:14:51;;;;;;;17.60;3.45;;;;;;;;;;5051905;28;20037;-75
2023/05/08 05:17:16;;;;;;;11.27;4.20;;;;;;;;;;5052707;28;20063;-76
2023/05/08 05:19:42;;;;;;;9.18;4.13;;;;;;;;;;5052235;28;20041;-75
2023/05/08 05:22:07;;;;;;;14.50;3.70;;;;;;;;;;5055532;28;20021;-76
2023/05/08 05:24:34;;;;;;;9.93;3.47;;;;;;;;;;5054481;28;20473;-75
2023/05/08 05:27:01;;;;;;;10.23;4.13;;;;;;;;;;5055355;28;20036;-76
2023/05/08 05:29:27;;;;;;;7.22;3.60;;;;;;;;;;5051319;28;20041;-76
2023/05/08 05:31:52;;;;;;;15.27;3.75;;;;;;;;;;5055360;28;20041;-75
2023/05/08 05:34:18;;;;;;;11.57;4.03;;;;;;;;;;5054509;28;20032;-76
2023/05/08 05:36:43;;;;;;;10.98;4.28;;;;;;;;;;5055181;28;20097;-75
2023/05/08 05:39:08;;;;;;;14.38;4.07;;;;;;;;;;5053732;28;20041;-76
2023/05/08 05:41:35;;;;;;;18.70;5.45;;;;;;;;;;5054883;28;20411;-75
2023/05/08 05:44:00;;;;;;;13.32;4.10;;;;;;;;;;5053751;28;20037;-75
2023/05/08 05:46:31;;;;;;;11.40;4.22;;;;;;;;;;5051702;28;20048;-76
2023/05/08 05:48:59;;;;;;;10.23;4.13;;;;;;;;;;5051350;28;20048;-76
2023/05/08 05:51:26;;;;;;;8.20;3.75;;;;;;;;;;5050007;28;20483;-76
2023/05/08 05:53:51;;;;;;;12.88;3.97;;;;;;;;;;5054301;28;20044;-76
2023/05/08 05:56:17;;;;;;;11.15;4.28;;;;;;;;;;5052371;28;20037;-76
2023/05/08 05:58:44;;;;;;;11.77;3.70;;;;;;;;;;5054044;28;20481;-77
2023/05/08 06:01:10;;;;;;;8.07;3.30;;;;;;;;;;5048308;28;20048;-76
2023/05/08 06:03:36;;;;;;;6.43;3.45;;;;;;;;;;5054152;28;20039;-75
2023/05/08 06:06:02;;;;;;;5.85;3.08;;;;;;;;;;5049510;28;20039;-76
2023/05/08 06:08:27;;;;;;;17.95;3.53;;;;;;;;;;5049073;28;20037;-76
2023/05/08 06:10:53;;;;;;;9.15;3.38;;;;;;;;;;5047760;28;20041;-76
2023/05/08 06:13:18;;;;;;;9.05;3.83;;;;;;;;;;5054331;28;20036;-76
2023/05/08 06:15:44;;;;;;;10.48;3.08;;;;;;;;;;5053784;28;20440;-75
2023/05/08 06:18:09;;;;;;;12.80;3.70;;;;;;;;;;5035488;28;20048;-76
2023/05/08 06:20:39;;;;;;;10.18;3.40;;;;;;;;;;5053691;28;20508;-76
2023/05/08 06:23:04;;;;;;;9.75;4.13;;;;;;;;;;5053191;28;20401;-76
2023/05/08 06:25:30;;;;;;;7.97;4.00;;;;;;;;;;5049347;28;20048;-76
2023/05/08 06:27:55;;;;;;;13.10;4.00;;;;;;;;;;5054243;28;20082;-76
2023/05/08 06:30:21;;;;;;;10.85;3.50;;;;;;;;;;5051849;28;20053;-76
2023/05/08 06:32:47;;;;;;;9.23;3.78;;;;;;;;;;5051575;28;20040;-75
2023/05/08 06:35:17;;;;;;;11.07;3.78;;;;;;;;;;5053364;28;20070;-76
2023/05/08 06:37:43;;;;;;;7.20;3.67;;;;;;;;;;5053563;28;20424;-75
2023/05/08 06:40:09;;;;;;;8.10;3.67;;;;;;;;;;5049022;28;20044;-75
2023/05/08 06:42:34;;;;;;;10.52;4.03;;;;;;;;;;5053224;28;20044;-75
2023/05/08 06:44:59;;;;;;;10.80;4.40;;;;;;;;;;5051505;28;20040;-75
2023/05/08 06:47:25;;;;;;;14.77;4.40;;;;;;;;;;5052711;28;20047;-76
2023/05/08 06:49:52;;;;;;;7.70;4.35;;;;;;;;;;5041569;28;20044;-77
2023/05/08 06:52:18;;;;;;;10.30;4.38;;;;;;;;;;5052922;28;20032;-77
2023/05/08 06:54:43;;;;;;;10.18;4.00;;;;;;;;;;5049862;28;20090;-75
2023/05/08 06:57:10;;;;;;;9.38;4.15;;;;;;;;;;5047364;28;20040;-76
2023/05/08 06:59:35;;;;;;;12.30;4.90;;;;;;;;;;5052874;28;20036;-76
2023/05/08 07:02:01;;;;;;;9.80;4.30;;;;;;;;;;5053468;28;20045;-75
2023/05/08 07:04:26;;;;;;;8.15;4.40;;;;;;;;;;5053007;28;20052;-76
2023/05/08 07:06:51;;;;;;;7.13;3.78;;;;;;;;;;5053257;28;20555;-76
2023/05/08 07:09:17;;;;;;;7.97;3.67;;;;;;;;;;5052853;28;20047;-76
2023/05/08 07:11:42;;;;;;;12.93;3.80;;;;;;;;;;5051419;28;20465;-76
2023/05/08 07:14:07;;;;;;;10.50;4.13;;;;;;;;;;5052556;28;20048;-76
2023/05/08 07:16:33;;;;;;;8.30;3.95;;;;;;;;;;5052382;28;20044;-75
2023/05/08 07:18:58;;;;;;;8.32;4.30;;;;;;;;;;5052597;28;20037;-76
2023/05/08 07:21:24;;;;;;;10.93;4.35;;;;;;;;;;5050072;28;20740;-75
2023/05/08 07:23:50;;;;;;;6.22;3.85;;;;;;;;;;5051262;28;20045;-75
2023/05/08 07:26:16;;;;;;;10.15;3.67;;;;;;;;;;5048488;28;20491;-75
2023/05/08 07:28:41;;;;;;;5.63;3.90;;;;;;;;;;5050965;28;20118;-77
2023/05/08 07:31:07;;;;;;;7.00;3.40;;;;;;;;;;5043737;28;20112;-75
2023/05/08 07:33:33;;;;;;;6.90;3.55;;;;;;;;;;5052865;28;20033;-75
2023/05/08 07:35:59;;;;;;;8.70;3.78;;;;;;;;;;5052556;28;20041;-75
2023/05/08 07:38:25;;;;;;;7.80;3.70;;;;;;;;;;5051547;28;20073;-75
2023/05/08 07:40:52;;;;;;;7.47;3.47;;;;;;;;;;5052249;28;20106;-75
2023/05/08 07:43:17;;;;;;;11.25;3.90;;;;;;;;;;5052457;28;20392;-76
2023/05/08 07:45:42;;;;;;;6.30;3.78;;;;;;;;;;5051953;28;20040;-75
2023/05/08 07:48:08;;;;;;;6.45;3.58;;;;;;;;;;5051606;28;20025;-75
2023/05/08 07:50:33;;;;;;;10.27;4.13;;;;;;;;;;5051884;28;20440;-75
2023/05/08 07:52:59;;;;;;;6.85;2.97;;;;;;;;;;5050366;28;20072;-75
2023/05/08 07:55:24;;;;;;;5.93;2.90;;;;;;;;;;5049680;28;20025;-75
2023/05/08 07:57:50;;;;;;;6.95;2.70;;;;;;;;;;5052661;28;20493;-75
2023/05/08 08:00:15;;;;;;;7.88;3.42;;;;;;;;;;5050178;28;20062;-76
2023/05/08 08:02:42;;;;;;;8.13;3.03;;;;;;;;;;5052367;28;20086;-75
2023/05/08 08:05:08;;;;;;;8.55;3.40;;;;;;;;;;5051084;28;20065;-75
2023/05/08 08:07:34;;;;;;;5.82;3.10;;;;;;;;;;5051179;28;20061;-75
2023/05/08 08:10:00;;;;;;;7.43;2.85;;;;;;;;;;5052118;28;20041;-75
2023/05/08 08:12:26;;;;;;;5.15;3.00;;;;;;;;;;5052399;28;20413;-75
2023/05/08 08:14:51;;;;;;;6.30;3.00;;;;;;;;;;5045225;28;20744;-75
2023/05/08 08:17:17;;;;;;;7.93;2.67;;;;;;;;;;5051010;28;20461;-75
2023/05/08 08:19:42;;;;;;;4.13;2.40;;;;;;;;;;5051564;28;20124;-75
2023/05/08 08:22:08;;;;;;;5.68;2.70;;;;;;;;;;5050791;28;20037;-76
2023/05/08 08:24:33;;;;;;;3.70;2.10;;;;;;;;;;5046369;28;20036;-76
2023/05/08 08:26:59;;;;;;;4.30;2.47;;;;;;;;;;5052252;28;20126;-74
2023/05/08 08:29:24;;;;;;;9.63;2.83;;;;;;;;;;5053460;28;20052;-75
2023/05/08 08:31:50;;;;;;;4.13;2.45;;;;;;;;;;5052096;28;20037;-75
2023/05/08 08:34:15;;;;;;;5.07;2.67;;;;;;;;;;5052115;28;20385;-76
2023/05/08 08:36:41;;;;;;;4.05;2.00;;;;;;;;;;5052283;28;20396;-75
2023/05/08 08:39:06;;;;;;;5.10;2.35;;;;;;;;;;5051843;28;20549;-76
2023/05/08 08:41:32;;;;;;;3.95;2.00;;;;;;;;;;5057159;28;20536;-75
2023/05/08 08:43:57;;;;;;;7.57;2.42;;;;;;;;;;5054811;28;20119;-76
2023/05/08 08:46:26;;;;;;;3.42;2.03;;;;;;;;;;5056082;28;20017;-76
2023/05/08 08:48:54;;;;;;;5.93;2.10;;;;;;;;;;5053743;28;20366;-75
2023/05/08 08:51:46;;;;;;;3.50;1.73;;;;;;;;;;5054495;28;20098;-75
2023/05/08 08:54:13;;;;;;;3.78;1.90;;;;;;;;;;5054124;28;20534;-76
2023/05/08 08:56:41;;;;;;;3.97;1.80;;;;;;;;;;5054043;28;20040;-76
2023/05/08 08:59:07;;;;;;;4.30;1.80;;;;;;;;;;5049912;28;20082;-76
2023/05/08 09:01:35;;;;;;;3.10;1.50;;;;;;;;;;5052543;28;20055;-76
2023/05/08 09:04:01;;;;;;;3.15;1.80;;;;;;;;;;5053817;28;20405;-75
2023/05/08 09:06:27;;;;;;;3.05;1.40;;;;;;;;;;5055831;28;20028;-75
2023/05/08 09:08:59;;;;;;;3.30;1.40;;;;;;;;;;5054164;28;20048;-76
2023/05/08 09:11:25;;;;;;;5.22;1.40;;;;;;;;;;5054344;28;20090;-74
2023/05/08 09:13:50;;;;;;;2.75;1.25;;;;;;;;;;5054041;28;20391;-74
2023/05/08 09:16:16;;;;;;;3.42;1.25;;;;;;;;;;5055019;28;20051;-74
2023/05/08 09:18:41;;;;;;;5.60;1.60;;;;;;;;;;5055174;28;20128;-74
2023/05/08 09:21:07;;;;;;;3.30;1.60;;;;;;;;;;5054885;28;20032;-74
2023/05/08 09:23:34;;;;;;;2.55;1.10;;;;;;;;;;5051041;28;20041;-74
2023/05/08 09:26:00;;;;;;;2.33;1.10;;;;;;;;;;5053191;28;20087;-74
2023/05/08 09:28:25;;;;;;;2.42;1.30;;;;;;;;;;5055477;28;20041;-74
2023/05/08 09:30:55;;;;;;;2.88;1.20;;;;;;;;;;5043477;28;20037;-74
2023/05/08 09:33:24;;;;;;;2.35;1.20;;;;;;;;;;5051162;28;20035;-77
2023/05/08 09:35:50;;;;;;;3.42;1.00;;;;;;;;;;5051452;28;20029;-75
2023/05/08 09:38:38;;;;;;;3.03;1.45;;;;;;;;;;5052014;28;20071;-75
2023/05/08 09:41:10;;;;;;;1.92;1.10;;;;;;;;;;5050529;28;20083;-75
2023/05/08 09:43:36;;;;;;;1.73;0.95;;;;;;;;;;5051924;28;20040;-74
2023/05/08 09:46:24;;;;;;;1.90;0.90;;;;;;;;;;5051193;28;20029;-74
2023/05/08 09:48:51;;;;;;;1.60;1.10;;;;;;;;;;5050681;28;20067;-74
2023/05/08 09:51:16;;;;;;;2.47;0.90;;;;;;;;;;5049713;28;20094;-75
2023/05/08 09:53:42;;;;;;;2.58;0.90;;;;;;;;;;5049888;28;20064;-75
2023/05/08 09:56:08;;;;;;;2.03;1.10;;;;;;;;;;5052291;28;20035;-74
2023/05/08 09:58:42;;;;;;;1.60;0.90;;;;;;;;;;5051181;28;20100;-75
2023/05/08 10:01:25;;;;;;;1.50;0.90;;;;;;;;;;5050179;28;20083;-75
2023/05/08 10:03:51;;;;;;;2.17;1.00;;;;;;;;;;5048355;28;20060;-75
2023/05/08 10:06:16;;;;;;;2.40;1.00;;;;;;;;;;5049262;28;20064;-75
2023/05/08 10:08:41;;;;;;;1.30;0.80;;;;;;;;;;5039835;28;20151;-74
2023/05/08 10:11:17;;;;;;;1.00;0.70;;;;;;;;;;5051083;28;20029;-74
2023/05/08 10:13:46;;;;;;;1.60;0.93;;;;;;;;;;5051641;28;20044;-75
2023/05/08 10:16:16;;;;;;;1.55;0.90;;;;;;;;;;5050111;28;20033;-75
2023/05/08 10:18:47;;;;;;;1.38;0.75;;;;;;;;;;5033690;28;20120;-75
2023/05/08 10:21:13;;;;;;;0.95;0.60;;;;;;;;;;5049863;28;20067;-74
2023/05/08 10:23:38;;;;;;;1.98;0.70;;;;;;;;;;5040554;28;20033;-75
2023/05/08 10:26:12;;;;;;;1.38;0.70;;;;;;;;;;5050799;28;20108;-74
2023/05/08 10:28:52;;;;;;;0.93;0.70;;;;;;;;;;5036641;28;20036;-75
2023/05/08 10:31:19;;;;;;;1.60;0.90;;;;;;;;;;5078074;28;20040;-75
2023/05/08 10:33:47;;;;;;;2.00;1.00;;;;;;;;;;5052392;28;20032;-74
2023/05/08 10:36:13;;;;;;;2.08;1.05;;;;;;;;;;5049547;28;20033;-74
2023/05/08 10:38:40;;;;;;;2.08;0.80;;;;;;;;;;5049788;28;20045;-75
2023/05/08 10:41:06;;;;;;;4.90;1.10;;;;;;;;;;5051332;28;20116;-74
2023/05/08 10:43:31;;;;;;;1.58;0.90;;;;;;;;;;5047262;28;20112;-74
2023/05/08 10:45:58;;;;;;;1.98;1.10;;;;;;;;;;5051199;28;20080;-75
2023/05/08 10:49:01;;;;;;;1.98;1.10;;;;;;;;;;5047350;28;20121;-75
2023/05/08 10:52:08;;;;;;;2.25;1.30;;;;;;;;;;5029753;28;20597;-75
2023/05/08 10:55:18;;;;;;;2.20;1.15;;;;;;;;;;4971065;28;20046;-75
2023/05/08 10:58:02;;;;;;;1.98;1.10;;;;;;;;;;4970538;28;20042;-78
2023/05/08 11:00:32;;;;;;;3.38;1.65;;;;;;;;;;5039829;28;20045;-77
2023/05/08 11:03:07;;;;;;;4.72;1.40;;;;;;;;;;5052432;28;20044;-77
2023/05/08 11:05:47;;;;;;;2.67;1.20;;;;;;;;;;5052632;28;20036;-74
2023/05/08 11:08:15;;;;;;;3.40;1.33;;;;;;;;;;5051923;28;20539;-76
2023/05/08 11:10:48;;;;;;;3.60;1.10;;;;;;;;;;5052484;28;20518;-76
2023/05/08 11:13:14;;;;;;;2.55;1.20;;;;;;;;;;5050909;28;20068;-77
2023/05/08 11:15:40;;;;;;;2.58;1.23;;;;;;;;;;5052631;28;20080;-76
2023/05/08 11:18:07;;;;;;;2.90;1.23;;;;;;;;;;5052408;28;20477;-74
2023/05/08 11:21:02;;;;;;;3.83;1.60;;;;;;;;;;5043606;28;20022;-76
2023/05/08 11:23:35;;;;;;;3.80;1.48;;;;;;;;;;5051918;28;20067;-76
2023/05/08 11:26:16;;;;;;;4.07;1.90;;;;;;;;;;5052495;28;20044;-76
2023/05/08 11:28:55;;;;;;;4.75;2.03;;;;;;;;;;5047644;28;20094;-76
2023/05/08 11:31:21;;;;;;;7.78;2.78;;;;;;;;;;5050741;28;20498;-76
2023/05/08 11:33:47;;;;;;;10.02;3.00;;;;;;;;;;5051960;28;20041;-76
2023/05/08 11:36:14;;;;;;;4.57;2.25;;;;;;;;;;5052382;28;20033;-76
2023/05/08 11:38:40;;;;;;;4.30;2.30;;;;;;;;;;5050551;28;20060;-76
2023/05/08 11:41:10;;;;;;;4.55;1.90;;;;;;;;;;5052003;28;20430;-77
2023/05/08 11:44:03;;;;;;;6.50;2.13;;;;;;;;;;5052662;28;20036;-77
2023/05/08 11:46:45;;;;;;;3.67;2.13;;;;;;;;;;5051664;28;20040;-76
2023/05/08 11:49:13;;;;;;;6.18;2.30;;;;;;;;;;5048558;28;20047;-77
2023/05/08 11:51:43;;;;;;;2.92;1.70;;;;;;;;;;5051994;28;20037;-77
2023/05/08 11:54:09;;;;;;;4.10;2.17;;;;;;;;;;5029690;28;20132;-76
2023/05/08 11:56:37;;;;;;;3.42;1.63;;;;;;;;;;5035140;28;20112;-76
2023/05/08 11:59:07;;;;;;;2.10;1.20;;;;;;;;;;5049216;28;20055;-77
2023/05/08 12:01:33;;;;;;;3.30;2.08;;;;;;;;;;5041626;28;20028;-77
2023/05/08 12:04:11;;;;;;;4.53;1.58;;;;;;;;;;5047585;28;20044;-75
2023/05/08 12:06:39;;;;;;;4.30;1.33;;;;;;;;;;5044877;28;20037;-75
2023/05/08 12:09:15;;;;;;;4.28;1.65;;;;;;;;;;5049556;28;20139;-76
2023/05/08 12:11:42;;;;;;;3.72;1.52;;;;;;;;;;5048314;28;20120;-76
2023/05/08 12:14:08;;;;;;;3.35;1.30;;;;;;;;;;5051779;28;20029;-76
2023/05/08 12:16:37;;;;;;;2.20;1.10;;;;;;;;;;5050367;28;20377;-76
2023/05/08 12:19:03;;;;;;;2.53;1.50;;;;;;;;;;5053652;28;20068;-77
2023/05/08 12:21:28;;;;;;;2.90;1.10;;;;;;;;;;5053210;28;20032;-76
2023/05/08 12:23:55;;;;;;;2.53;1.27;;;;;;;;;;5053417;28;20034;-77
2023/05/08 12:26:21;;;;;;;2.67;1.45;;;;;;;;;;5052716;28;20069;-76
2023/05/08 12:28:53;;;;;;;2.58;1.50;;;;;;;;;;5045415;28;20048;-76
2023/05/08 12:31:19;;;;;;;4.35;1.98;;;;;;;;;;5053637;28;20033;-76
2023/05/08 12:33:44;;;;;;;4.50;1.73;;;;;;;;;;5053758;28;20043;-76
2023/05/08 12:36:10;;;;;;;2.25;1.30;;;;;;;;;;5055302;28;20505;-76
2023/05/08 12:38:35;;;;;;;3.00;1.40;;;;;;;;;;5050779;28;20048;-76
2023/05/08 12:41:03;;;;;;;3.13;1.60;;;;;;;;;;5050053;28;20044;-76
2023/05/08 12:43:33;;;;;;;2.58;1.38;;;;;;;;;;5055277;28;20380;-76
2023/05/08 12:45:58;;;;;;;4.50;1.58;;;;;;;;;;5081974;28;20055;-76
2023/05/08 12:48:24;;;;;;;5.97;1.52;;;;;;;;;;5052982;28;20163;-76
2023/05/08 12:50:49;;;;;;;3.03;1.40;;;;;;;;;;5049104;28;20047;-76
2023/05/08 12:53:16;;;;;;;2.42;1.23;;;;;;;;;;5048185;28;20041;-76
2023/05/08 12:55:52;;;;;;;3.70;1.40;;;;;;;;;;5049184;28;20396;-76
2023/05/08 12:58:18;;;;;;;3.13;1.60;;;;;;;;;;5049937;28;20053;-76
2023/05/08 13:00:50;;;;;;;4.60;1.45;;;;;;;;;;5053586;28;20033;-76
2023/05/08 13:03:24;;;;;;;2.90;1.40;;;;;;;;;;5028199;28;20040;-76
2023/05/08 13:05:50;;;;;;;3.30;1.33;;;;;;;;;;5049723;28;20121;-76
2023/05/08 13:08:15;;;;;;;5.55;1.65;;;;;;;;;;5051692;28;20033;-76
2023/05/08 13:10:52;;;;;;;2.72;1.35;;;;;;;;;;5051034;28;20116;-76
2023/05/08 13:13:22;;;;;;;2.13;1.00;;;;;;;;;;5073877;28;20045;-76
2023/05/08 13:15:49;;;;;;;3.65;1.30;;;;;;;;;;5051229;28;20041;-76
2023/05/08 13:18:16;;;;;;;2.40;1.23;;;;;;;;;;5051648;28;20041;-76
2023/05/08 13:20:42;;;;;;;2.65;1.30;;;;;;;;;;5054172;28;20424;-76
2023/05/08 13:23:08;;;;;;;7.93;1.52;;;;;;;;;;5054922;28;20124;-76
2023/05/08 13:25:35;;;;;;;2.00;1.20;;;;;;;;;;5053090;28;20059;-76
2023/05/08 13:28:00;;;;;;;3.55;1.60;;;;;;;;;;5054013;28;20043;-76
2023/05/08 13:30:26;;;;;;;4.88;1.50;;;;;;;;;;5054996;28;20037;-76
2023/05/08 13:32:52;;;;;;;5.10;2.40;;;;;;;;;;5055133;28;20040;-77
2023/05/08 13:35:18;;;;;;;3.97;2.38;;;;;;;;;;5053904;28;20075;-77
2023/05/08 13:37:44;;;;;;;7.15;4.25;;;;;;;;;;5053825;28;20082;-76
2023/05/08 13:40:10;;;;;;;9.38;4.97;;;;;;;;;;5054805;28;20040;-77
2023/05/08 13:42:36;;;;;;;9.13;4.22;;;;;;;;;;5053953;28;20036;-76
2023/05/08 13:45:02;;;;;;;16.83;8.48;;;;;;;;;;5054805;28;20102;-76
2023/05/08 13:47:27;;;;;;;5.43;2.80;;;;;;;;;;5054967;28;20028;-76
2023/05/08 13:49:53;;;;;;;5.28;2.10;;;;;;;;;;5052486;28;20079;-77
2023/05/08 13:52:18;;;;;;;3.83;1.75;;;;;;;;;;5054461;28;20456;-76
2023/05/08 13:54:43;;;;;;;2.85;1.73;;;;;;;;;;5052376;28;20029;-77
2023/05/08 13:57:09;;;;;;;5.30;2.28;;;;;;;;;;5054458;28;20073;-76
2023/05/08 13:59:35;;;;;;;2.10;1.20;;;;;;;;;;5054371;28;20056;-76
2023/05/08 14:02:00;;;;;;;2.35;1.40;;;;;;;;;;5054436;28;20075;-76
2023/05/08 14:04:26;;;;;;;2.78;1.42;;;;;;;;;;5053265;28;20378;-76
2023/05/08 14:06:51;;;;;;;2.63;1.45;;;;;;;;;;5054650;28;20495;-76
2023/05/08 14:09:16;;;;;;;3.55;1.00;;;;;;;;;;5054484;28;20033;-76
2023/05/08 14:11:42;;;;;;;3.33;1.48;;;;;;;;;;5054314;28;20041;-76
2023/05/08 14:14:07;;;;;;;3.17;1.80;;;;;;;;;;5054352;28;20037;-77
2023/05/08 14:16:32;;;;;;;2.97;1.50;;;;;;;;;;5053923;28;20036;-76
2023/05/08 14:18:58;;;;;;;2.55;1.55;;;;;;;;;;5054298;28;20091;-77
2023/05/08 14:21:23;;;;;;;2.35;1.23;;;;;;;;;;5053328;28;20068;-76
2023/05/08 14:23:49;;;;;;;3.03;1.23;;;;;;;;;;5054421;28;20033;-76
2023/05/08 14:26:14;;;;;;;4.10;1.35;;;;;;;;;;5052169;28;20077;-76
2023/05/08 14:28:40;;;;;;;7.13;2.05;;;;;;;;;;5054243;28;20072;-76
2023/05/08 14:31:05;;;;;;;2.28;1.20;;;;;;;;;;5052764;28;20029;-76
2023/05/08 14:33:30;;;;;;;2.83;1.20;;;;;;;;;;5053144;28;20075;-77
2023/05/08 14:35:56;;;;;;;1.70;1.05;;;;;;;;;;5053838;28;20051;-76
2023/05/08 14:38:21;;;;;;;3.08;1.17;;;;;;;;;;5052900;28;20461;-76
2023/05/08 14:40:50;;;;;;;2.92;1.17;;;;;;;;;;5052526;28;20072;-76
2023/05/08 14:43:16;;;;;;;2.00;1.20;;;;;;;;;;5052726;28;20048;-76
2023/05/08 14:45:42;;;;;;;2.75;1.10;;;;;;;;;;5053611;28;20480;-75
2023/05/08 14:48:07;;;;;;;7.97;2.55;;;;;;;;;;5053842;28;20033;-76